Pleasant Hill, Pennsylvania
Current Conditions -  °F | °C
As of 7:53 AM on Wednesday 26 Nov 2014 (Local Time) from KTHV Reporting Station
Moderate Rain Moderate Rain  
Wind Chill: 35°   Ceiling: 2800
Heat Index: 39°   Visibility: 4mi
Dew Point: 36°   Wind: 6mph
Humidity: 89%   Direction: 70°ENE
Pressure: 30.09"   Gusts: NA
Location:  39.7863°N, 76.988°W
Report Text: KTHV 261253Z AUTO 07005KT 4SM RA BR OVC028 04/02 A3009 RMK AO2 SLP195 P0008 T00390022
Loading
Personal Weather Stations






























Interactive Weather Map New forecast layout! Learn more

10-Day Weather Forecast

Advertisements
Track Severe Weather on mobile